createdAt,value
2022-12-03T00:00:35.672Z,39.50
2022-12-03T00:03:05.326Z,39.50
2022-12-03T00:05:35.249Z,39.60
2022-12-03T00:08:06.536Z,39.80
2022-12-03T00:10:37.059Z,39.50
2022-12-03T00:13:07.138Z,39.10
2022-12-03T00:15:36.696Z,39.70
2022-12-03T00:18:08.604Z,39.60
2022-12-03T00:20:39.147Z,40.10
2022-12-03T00:23:08.763Z,39.70
2022-12-03T00:25:38.260Z,39.70
2022-12-03T00:28:08.807Z,39.80
2022-12-03T00:30:38.451Z,38.90
2022-12-03T00:33:07.854Z,38.80
2022-12-03T00:35:37.756Z,38.30
2022-12-03T00:38:07.362Z,38.00
2022-12-03T00:40:36.884Z,37.80
2022-12-03T00:43:07.077Z,37.70
2022-12-03T00:45:37.647Z,37.50
2022-12-03T00:48:07.383Z,37.20
2022-12-03T00:50:36.969Z,37.00
2022-12-03T00:53:06.860Z,37.10
2022-12-03T00:55:36.828Z,37.00
2022-12-03T00:58:09.014Z,36.60
2022-12-03T01:00:39.355Z,37.00
2022-12-03T01:03:09.139Z,36.90
2022-12-03T01:05:38.696Z,36.60
2022-12-03T01:08:08.270Z,36.50
2022-12-03T01:10:37.810Z,36.50
2022-12-03T01:13:07.709Z,36.50
2022-12-03T01:15:37.236Z,36.60
2022-12-03T01:18:06.761Z,38.60
2022-12-03T01:20:37.064Z,40.10
2022-12-03T01:23:07.329Z,38.40
2022-12-03T01:25:36.873Z,38.90
2022-12-03T01:28:06.467Z,38.40
2022-12-03T01:30:57.381Z,39.50
2022-12-03T01:33:28.068Z,36.90
2022-12-03T01:35:58.272Z,39.40
2022-12-03T01:38:27.762Z,37.00
2022-12-03T01:40:58.620Z,37.30
2022-12-03T01:43:28.674Z,37.20
2022-12-03T01:45:58.777Z,38.00
2022-12-03T01:48:29.317Z,37.70
2022-12-03T01:50:58.907Z,36.50
2022-12-03T01:53:28.795Z,37.60
2022-12-03T01:55:58.408Z,37.20
2022-12-03T01:58:30.687Z,38.10
2022-12-03T02:01:03.534Z,37.50
2022-12-03T02:03:33.699Z,36.20
2022-12-03T02:06:03.657Z,38.30
2022-12-03T02:08:34.362Z,37.60
2022-12-03T02:11:21.330Z,37.00
2022-12-03T02:13:52.833Z,36.80
2022-12-03T02:16:22.918Z,36.90
2022-12-03T02:18:52.952Z,37.10
2022-12-03T02:21:32.181Z,36.60
2022-12-03T02:24:08.101Z,35.40
2022-12-03T02:26:38.097Z,37.10
2022-12-03T02:29:07.690Z,37.80
2022-12-03T02:31:37.622Z,36.90
2022-12-03T02:34:08.856Z,36.30
2022-12-03T02:36:38.963Z,36.30
2022-12-03T02:39:09.035Z,36.20
2022-12-03T02:41:57.427Z,36.30
2022-12-03T02:44:26.976Z,35.40
2022-12-03T02:46:56.915Z,36.60
2022-12-03T02:49:26.944Z,36.70
2022-12-03T02:51:56.958Z,35.20
2022-12-03T02:54:26.462Z,35.50
2022-12-03T02:56:56.287Z,36.40
2022-12-03T02:59:25.831Z,37.00
2022-12-03T03:02:15.208Z,36.90
2022-12-03T03:04:45.271Z,33.10
2022-12-03T03:07:15.120Z,35.20
2022-12-03T03:09:44.894Z,35.50
2022-12-03T03:12:14.815Z,37.20
2022-12-03T03:14:44.327Z,34.20
2022-12-03T03:17:14.225Z,36.60
2022-12-03T03:19:43.759Z,33.90
2022-12-03T03:22:13.724Z,33.80
2022-12-03T03:24:43.288Z,34.40
2022-12-03T03:27:12.690Z,36.00
2022-12-03T03:29:42.109Z,37.50
2022-12-03T03:32:13.349Z,39.30
2022-12-03T03:34:43.717Z,37.30
2022-12-03T03:37:13.388Z,39.20
2022-12-03T03:39:43.308Z,38.40
2022-12-03T03:42:12.839Z,52.70
2022-12-03T03:44:42.271Z,61.00
2022-12-03T03:47:12.246Z,64.80
2022-12-03T03:49:42.323Z,66.30
2022-12-03T03:52:12.883Z,67.00
2022-12-03T03:54:42.495Z,67.70
2022-12-03T03:57:12.410Z,67.10
2022-12-03T04:02:21.373Z,67.40
2022-12-03T04:04:51.815Z,67.10
2022-12-03T04:07:21.696Z,66.80
2022-12-03T04:09:51.145Z,67.40
2022-12-03T04:15:10.195Z,67.00
2022-12-03T04:17:39.706Z,66.20
2022-12-03T04:20:09.319Z,67.50
2022-12-03T04:22:41.512Z,67.10
2022-12-03T04:25:29.839Z,66.20
2022-12-03T04:28:17.931Z,66.50
2022-12-03T04:30:47.913Z,65.80
2022-12-03T04:33:35.389Z,66.60
2022-12-03T04:36:05.067Z,66.40
2022-12-03T04:38:35.031Z,66.50
2022-12-03T04:41:07.630Z,66.70
2022-12-03T04:43:56.891Z,66.20
2022-12-03T04:46:26.797Z,67.00
2022-12-03T04:48:56.895Z,66.90
2022-12-03T04:51:26.535Z,67.60
2022-12-03T04:53:55.993Z,68.00
2022-12-03T04:56:25.849Z,67.90
2022-12-03T04:58:58.419Z,67.70
2022-12-03T05:01:28.404Z,67.70
2022-12-03T05:03:58.423Z,67.00
2022-12-03T05:06:27.985Z,67.40
2022-12-03T05:08:57.374Z,67.40
2022-12-03T05:11:27.364Z,67.40
2022-12-03T05:13:56.977Z,67.70
2022-12-03T05:16:27.009Z,67.60
2022-12-03T05:18:57.143Z,66.90
2022-12-03T05:21:26.630Z,67.30
2022-12-03T05:23:56.116Z,66.90
2022-12-03T05:26:26.092Z,66.80
2022-12-03T05:28:55.634Z,67.00
2022-12-03T05:31:25.132Z,66.70
2022-12-03T05:33:55.786Z,66.40
2022-12-03T05:36:26.752Z,65.80
2022-12-03T05:38:57.303Z,65.50
2022-12-03T05:41:45.788Z,65.20
2022-12-03T05:44:20.327Z,65.10
2022-12-03T05:46:50.227Z,64.90
2022-12-03T05:49:19.709Z,64.60
2022-12-03T05:51:51.457Z,64.50
2022-12-03T05:54:24.642Z,64.20
2022-12-03T05:56:54.586Z,64.00
2022-12-03T05:59:24.146Z,64.30
2022-12-03T06:01:54.014Z,64.50
2022-12-03T06:04:24.037Z,63.90
2022-12-03T06:06:54.028Z,64.30
2022-12-03T06:09:23.989Z,64.30
2022-12-03T06:11:54.872Z,64.00
2022-12-03T06:14:24.272Z,63.90
2022-12-03T06:16:54.169Z,64.50
2022-12-03T06:19:23.923Z,64.50
2022-12-03T06:21:53.415Z,64.30
2022-12-03T06:24:23.365Z,64.60
2022-12-03T06:26:52.966Z,64.80
2022-12-03T06:29:22.529Z,64.80
2022-12-03T06:31:52.053Z,64.90
2022-12-03T06:34:21.910Z,64.50
2022-12-03T06:36:51.549Z,64.40
2022-12-03T06:39:21.471Z,64.80
2022-12-03T06:41:51.079Z,64.70
2022-12-03T06:44:20.471Z,64.80
2022-12-03T06:46:50.416Z,64.70
2022-12-03T06:49:20.504Z,64.80
2022-12-03T06:51:50.097Z,64.90
2022-12-03T06:54:20.059Z,64.60
2022-12-03T06:56:50.046Z,64.70
2022-12-03T06:59:19.523Z,64.40
2022-12-03T07:01:49.499Z,64.20
2022-12-03T07:04:19.200Z,63.80
2022-12-03T07:06:49.253Z,63.70
2022-12-03T07:09:18.916Z,64.40
2022-12-03T07:11:48.865Z,63.70
2022-12-03T07:14:18.460Z,62.90
2022-12-03T07:16:48.363Z,64.40
2022-12-03T07:19:18.657Z,64.10
2022-12-03T07:21:49.015Z,63.80
2022-12-03T07:24:18.901Z,64.00
2022-12-03T07:26:48.892Z,64.00
2022-12-03T07:29:18.908Z,64.20
2022-12-03T07:31:51.799Z,63.80
2022-12-03T07:34:20.993Z,63.60
2022-12-03T07:36:50.473Z,64.40
2022-12-03T07:39:19.886Z,64.60
2022-12-03T07:41:49.790Z,64.10
2022-12-03T07:44:19.770Z,64.40
2022-12-03T07:46:49.335Z,64.40
2022-12-03T07:49:18.846Z,64.60
2022-12-03T07:51:54.656Z,64.60
2022-12-03T07:54:25.454Z,63.90
2022-12-03T07:57:00.892Z,64.70
2022-12-03T07:59:31.551Z,65.40
2022-12-03T08:02:01.082Z,65.80
2022-12-03T08:04:30.593Z,65.90
2022-12-03T08:07:00.018Z,66.40
2022-12-03T08:09:30.252Z,66.40
2022-12-03T08:12:01.084Z,66.30
2022-12-03T08:14:32.253Z,66.60
2022-12-03T08:17:02.241Z,66.30
2022-12-03T08:19:32.250Z,66.60
2022-12-03T08:22:02.225Z,66.30
2022-12-03T08:24:31.895Z,66.30
2022-12-03T08:27:01.374Z,67.10
2022-12-03T08:29:32.848Z,67.20
2022-12-03T08:32:03.057Z,67.40
2022-12-03T08:34:32.660Z,67.00
2022-12-03T08:37:13.059Z,67.10
2022-12-03T08:39:50.858Z,66.90
2022-12-03T08:42:43.366Z,67.50
2022-12-03T08:45:25.062Z,67.50
2022-12-03T08:47:57.982Z,68.00
2022-12-03T08:50:32.410Z,67.30
2022-12-03T08:53:17.780Z,67.50
2022-12-03T08:55:49.500Z,67.10
2022-12-03T08:58:34.585Z,66.70
2022-12-03T09:01:13.394Z,66.90
2022-12-03T09:03:50.329Z,67.00
2022-12-03T09:06:20.753Z,67.90
2022-12-03T09:08:51.395Z,67.70
2022-12-03T09:11:21.591Z,67.40
2022-12-03T09:13:51.079Z,67.70
2022-12-03T09:16:21.107Z,67.30
2022-12-03T09:18:51.553Z,67.20
2022-12-03T09:21:21.716Z,67.10
2022-12-03T09:23:51.278Z,68.20
2022-12-03T09:26:21.199Z,67.80
2022-12-03T09:28:50.870Z,68.30
2022-12-03T09:31:20.504Z,67.80
2022-12-03T09:33:50.159Z,68.00
2022-12-03T09:36:19.651Z,68.20
2022-12-03T09:38:49.243Z,68.00
2022-12-03T09:41:18.731Z,68.50
2022-12-03T09:44:03.929Z,68.60
2022-12-03T09:46:36.226Z,68.60
2022-12-03T09:49:12.294Z,68.80
2022-12-03T09:51:43.911Z,69.20
2022-12-03T09:54:21.604Z,69.20
2022-12-03T09:56:51.096Z,69.60
2022-12-03T09:59:20.497Z,69.30
2022-12-03T10:01:50.435Z,69.40
2022-12-03T10:04:20.669Z,69.70
2022-12-03T10:06:50.352Z,69.80
2022-12-03T10:09:30.970Z,69.90
2022-12-03T10:12:01.092Z,69.80
2022-12-03T10:14:31.072Z,69.80
2022-12-03T10:17:00.728Z,70.20
2022-12-03T10:19:32.924Z,70.10
2022-12-03T10:22:02.938Z,70.00
2022-12-03T10:24:34.689Z,70.10
2022-12-03T10:27:24.761Z,70.30
2022-12-03T10:29:58.777Z,70.00
2022-12-03T10:32:51.596Z,69.80
2022-12-03T10:35:41.963Z,70.00
2022-12-03T10:38:23.455Z,70.00
2022-12-03T10:40:53.215Z,70.40
2022-12-03T10:43:26.800Z,70.30
2022-12-03T10:46:18.359Z,70.10
2022-12-03T10:48:56.216Z,70.20
2022-12-03T10:51:28.796Z,69.80
2022-12-03T10:54:00.314Z,70.40
2022-12-03T10:56:30.269Z,70.40
2022-12-03T10:59:00.422Z,70.60
2022-12-03T11:01:30.055Z,70.70
2022-12-03T11:04:04.785Z,70.30
2022-12-03T11:06:35.017Z,70.80
2022-12-03T11:09:09.122Z,70.80
2022-12-03T11:11:39.263Z,70.40
2022-12-03T11:14:11.127Z,70.60
2022-12-03T11:16:44.175Z,70.40
2022-12-03T11:19:18.829Z,70.40
2022-12-03T11:22:07.225Z,71.40
2022-12-03T11:24:38.257Z,71.10
2022-12-03T11:27:17.002Z,71.00
2022-12-03T11:30:03.445Z,70.90
2022-12-03T11:32:59.778Z,70.90
2022-12-03T11:35:37.282Z,71.20
2022-12-03T11:38:52.616Z,71.10
2022-12-03T11:41:28.694Z,71.30
2022-12-03T11:44:06.974Z,72.30
2022-12-03T11:46:41.940Z,72.60
2022-12-03T11:49:31.462Z,71.90
2022-12-03T11:52:02.744Z,72.40
2022-12-03T11:54:35.496Z,72.50
2022-12-03T11:57:05.625Z,72.60
2022-12-03T11:59:35.646Z,72.60
2022-12-03T12:02:21.903Z,72.70
2022-12-03T12:04:51.927Z,72.70
2022-12-03T12:07:37.767Z,72.90
2022-12-03T12:10:08.290Z,72.90
2022-12-03T12:12:51.114Z,72.90
2022-12-03T12:15:45.470Z,72.80
2022-12-03T12:18:41.017Z,72.90
2022-12-03T12:21:44.080Z,73.10
2022-12-03T12:24:47.021Z,73.10
2022-12-03T12:27:38.126Z,73.20
2022-12-03T12:30:16.542Z,73.20
2022-12-03T12:33:10.864Z,73.40
2022-12-03T12:35:40.841Z,73.40
2022-12-03T12:38:11.995Z,73.40
2022-12-03T12:40:43.113Z,73.40
2022-12-03T12:43:15.519Z,73.70
2022-12-03T12:45:50.749Z,73.70
2022-12-03T12:48:49.975Z,73.70
2022-12-03T12:51:19.842Z,73.80
2022-12-03T12:53:49.872Z,73.90
2022-12-03T12:56:27.991Z,73.90
2022-12-03T12:59:11.935Z,74.00
2022-12-03T13:01:42.004Z,74.10
2022-12-03T13:04:21.174Z,74.10
2022-12-03T13:06:52.404Z,74.00
2022-12-03T13:09:24.458Z,74.00
2022-12-03T13:11:55.329Z,74.30
2022-12-03T13:14:27.325Z,74.30
2022-12-03T13:16:57.590Z,74.40
2022-12-03T13:19:29.326Z,74.20
2022-12-03T13:22:03.008Z,74.60
2022-12-03T13:24:40.237Z,74.50
2022-12-03T13:27:18.909Z,74.70
2022-12-03T13:29:53.137Z,74.50
2022-12-03T13:32:32.150Z,74.30
2022-12-03T13:35:08.523Z,74.40
2022-12-03T13:37:38.281Z,74.80
2022-12-03T13:40:36.650Z,74.60
2022-12-03T13:43:12.198Z,74.60
2022-12-03T13:45:46.103Z,74.60
2022-12-03T13:48:21.707Z,74.50
2022-12-03T13:50:52.775Z,74.50
2022-12-03T13:53:34.139Z,74.60
2022-12-03T13:56:26.662Z,74.70
2022-12-03T13:58:58.445Z,74.80
2022-12-03T14:01:31.020Z,75.20
2022-12-03T14:04:01.062Z,74.70
2022-12-03T14:06:31.227Z,75.10
2022-12-03T14:09:03.268Z,74.90
2022-12-03T14:11:50.942Z,75.00
2022-12-03T14:14:20.503Z,75.00
2022-12-03T14:16:51.443Z,75.10
2022-12-03T14:19:24.061Z,75.20
2022-12-03T14:21:54.013Z,75.00
2022-12-03T14:24:23.626Z,75.20
2022-12-03T14:26:53.629Z,75.00
2022-12-03T14:29:24.606Z,75.20
2022-12-03T14:31:56.002Z,75.40
2022-12-03T14:34:32.695Z,75.00
2022-12-03T14:37:02.300Z,75.50
2022-12-03T14:39:32.196Z,75.70
2022-12-03T14:42:17.786Z,75.40
2022-12-03T14:44:51.730Z,75.70
2022-12-03T14:47:25.527Z,75.50
2022-12-03T14:49:55.321Z,75.80
2022-12-03T14:52:27.994Z,75.50
2022-12-03T14:55:04.816Z,75.60
2022-12-03T14:57:34.773Z,76.10
2022-12-03T15:00:04.680Z,75.30
2022-12-03T15:02:34.884Z,75.60
2022-12-03T15:05:05.086Z,75.90
2022-12-03T15:07:35.434Z,75.80
2022-12-03T15:10:06.000Z,75.70
2022-12-03T15:12:35.761Z,75.40
2022-12-03T15:15:05.413Z,75.80
2022-12-03T15:17:34.962Z,75.70
2022-12-03T15:20:07.214Z,76.00
2022-12-03T15:22:36.831Z,75.70
2022-12-03T15:25:08.756Z,75.90
2022-12-03T15:27:38.343Z,76.20
2022-12-03T15:30:08.838Z,75.70
2022-12-03T15:32:41.353Z,75.70
2022-12-03T15:35:11.551Z,75.80
2022-12-03T15:37:41.093Z,76.00
2022-12-03T15:40:12.172Z,75.90
2022-12-03T15:42:41.868Z,76.10
2022-12-03T15:45:15.138Z,76.20
2022-12-03T15:47:45.741Z,75.80
2022-12-03T15:50:15.990Z,75.90
2022-12-03T15:52:46.118Z,75.70
2022-12-03T15:55:15.688Z,75.90
2022-12-03T15:57:45.782Z,75.80
2022-12-03T16:00:16.953Z,75.90
2022-12-03T16:02:52.595Z,75.80
2022-12-03T16:05:23.058Z,76.00
2022-12-03T16:07:53.042Z,75.80
2022-12-03T16:10:23.382Z,75.90
2022-12-03T16:12:53.104Z,75.80
2022-12-03T16:15:27.063Z,75.90
2022-12-03T16:17:57.604Z,76.00
2022-12-03T16:20:29.974Z,75.80
2022-12-03T16:22:59.628Z,76.20
2022-12-03T16:25:29.666Z,76.00
2022-12-03T16:27:59.411Z,76.10
2022-12-03T16:30:29.917Z,76.20
2022-12-03T16:32:59.875Z,76.00
2022-12-03T16:35:29.467Z,76.10
2022-12-03T16:37:59.843Z,76.40
2022-12-03T16:40:30.112Z,76.00
2022-12-03T16:42:59.902Z,76.20
2022-12-03T16:45:48.232Z,75.80
2022-12-03T16:48:18.748Z,76.10
2022-12-03T16:50:49.856Z,76.00
2022-12-03T16:53:20.447Z,76.00
2022-12-03T16:55:50.018Z,75.90
2022-12-03T16:58:22.179Z,76.10
2022-12-03T17:00:54.332Z,76.00
2022-12-03T17:03:28.998Z,76.00
2022-12-03T17:06:03.464Z,76.30
2022-12-03T17:08:33.764Z,76.60
2022-12-03T17:11:05.283Z,76.30
2022-12-03T17:13:34.966Z,76.60
2022-12-03T17:16:04.566Z,76.20
2022-12-03T17:18:34.695Z,76.30
2022-12-03T17:21:04.662Z,76.10
2022-12-03T17:23:34.206Z,76.40
2022-12-03T17:26:03.673Z,75.90
2022-12-03T17:28:33.649Z,76.20
2022-12-03T17:31:03.266Z,76.40
2022-12-03T17:33:32.823Z,76.60
2022-12-03T17:36:02.841Z,76.50
2022-12-03T17:38:38.620Z,76.70
2022-12-03T17:41:09.225Z,76.60
2022-12-03T17:43:40.100Z,76.80
2022-12-03T17:46:09.885Z,76.60
2022-12-03T17:48:41.772Z,76.50
2022-12-03T17:51:12.356Z,76.40
2022-12-03T17:53:42.842Z,76.50
2022-12-03T17:56:12.287Z,76.50
2022-12-03T17:58:41.971Z,76.50
2022-12-03T18:01:11.469Z,77.00
2022-12-03T18:03:41.477Z,76.20
2022-12-03T18:06:11.185Z,76.10
2022-12-03T18:08:41.470Z,76.40
2022-12-03T18:11:10.955Z,76.10
2022-12-03T18:13:41.043Z,76.30
2022-12-03T18:16:10.697Z,76.70
2022-12-03T18:18:40.215Z,76.90
2022-12-03T18:21:10.486Z,76.20
2022-12-03T18:23:40.049Z,76.70
2022-12-03T18:26:10.141Z,76.10
2022-12-03T18:28:40.638Z,76.60
2022-12-03T18:31:18.878Z,76.80
2022-12-03T18:33:49.738Z,76.30
2022-12-03T18:36:20.440Z,76.50
2022-12-03T18:38:52.938Z,77.00
2022-12-03T18:41:26.356Z,76.00
2022-12-03T18:43:55.991Z,75.90
2022-12-03T18:46:51.647Z,76.00
2022-12-03T18:49:15.434Z,76.20
2022-12-03T18:51:45.172Z,76.30
2022-12-03T18:54:14.994Z,75.60
2022-12-03T18:56:45.689Z,76.30
2022-12-03T18:59:15.283Z,75.90
2022-12-03T19:01:45.640Z,76.00
2022-12-03T19:04:15.649Z,76.30
2022-12-03T19:06:45.682Z,76.20
2022-12-03T19:09:15.210Z,76.00
2022-12-03T19:11:44.771Z,76.20
2022-12-03T19:14:15.031Z,76.30
2022-12-03T19:16:45.360Z,76.20
2022-12-03T19:19:15.655Z,76.60
2022-12-03T19:21:45.632Z,76.20
2022-12-03T19:24:30.599Z,75.90
2022-12-03T19:27:00.079Z,76.20
2022-12-03T19:29:30.004Z,76.40
2022-12-03T19:31:59.624Z,76.20
2022-12-03T19:34:29.140Z,76.70
2022-12-03T19:36:59.087Z,76.00
2022-12-03T19:39:28.670Z,76.30
2022-12-03T19:41:58.393Z,76.20
2022-12-03T19:44:29.143Z,76.20
2022-12-03T19:46:59.176Z,76.00
2022-12-03T19:49:28.823Z,75.90
2022-12-03T19:51:58.557Z,76.30
2022-12-03T19:54:28.109Z,76.00
2022-12-03T19:56:58.063Z,76.10
2022-12-03T19:59:28.091Z,76.10
2022-12-03T20:01:57.777Z,75.80
2022-12-03T20:04:27.989Z,76.50
2022-12-03T20:06:57.496Z,75.90
2022-12-03T20:09:26.930Z,76.40
2022-12-03T20:11:56.807Z,76.10
2022-12-03T20:14:26.847Z,75.80
2022-12-03T20:16:56.960Z,76.70
2022-12-03T20:19:26.508Z,76.70
2022-12-03T20:22:02.125Z,76.70
2022-12-03T20:24:33.362Z,76.80
2022-12-03T20:27:03.417Z,77.10
2022-12-03T20:29:33.214Z,76.70
2022-12-03T20:32:04.673Z,77.00
2022-12-03T20:34:37.163Z,76.90
2022-12-03T20:37:07.090Z,76.70
2022-12-03T20:39:37.057Z,76.50
2022-12-03T20:42:07.552Z,76.60
2022-12-03T20:44:41.125Z,76.60
2022-12-03T20:47:10.172Z,76.40
2022-12-03T20:49:41.495Z,76.20
2022-12-03T20:52:11.106Z,76.40
2022-12-03T20:54:41.026Z,76.70
2022-12-03T20:57:11.016Z,76.30
2022-12-03T20:59:41.060Z,76.70
2022-12-03T21:02:12.332Z,76.40
2022-12-03T21:04:42.718Z,76.40
2022-12-03T21:07:12.337Z,76.30
2022-12-03T21:09:42.279Z,76.40
2022-12-03T21:12:11.831Z,76.30
2022-12-03T21:14:41.779Z,75.90
2022-12-03T21:17:11.486Z,76.30
2022-12-03T21:19:41.456Z,76.50
2022-12-03T21:22:11.393Z,76.20
2022-12-03T21:24:43.452Z,76.40
2022-12-03T21:27:17.016Z,75.70
2022-12-03T21:29:51.070Z,75.90
2022-12-03T21:32:21.073Z,75.70
2022-12-03T21:34:51.084Z,76.00
2022-12-03T21:37:20.548Z,76.20
2022-12-03T21:39:50.435Z,75.90
2022-12-03T21:42:35.993Z,76.60
2022-12-03T21:45:07.635Z,76.20
2022-12-03T21:47:37.773Z,76.50
2022-12-03T21:50:09.161Z,76.60
2022-12-03T21:52:39.648Z,76.40
2022-12-03T21:55:09.811Z,76.50
2022-12-03T21:57:39.873Z,76.40
2022-12-03T22:00:13.931Z,76.40
2022-12-03T22:02:43.603Z,76.00
2022-12-03T22:05:13.648Z,76.50
2022-12-03T22:07:44.061Z,76.10
2022-12-03T22:10:14.050Z,76.10
2022-12-03T22:12:44.059Z,76.00
2022-12-03T22:15:18.831Z,76.30
2022-12-03T22:17:49.122Z,76.20
2022-12-03T22:20:19.187Z,76.30
2022-12-03T22:22:48.848Z,76.20
2022-12-03T22:25:18.548Z,76.10
2022-12-03T22:27:48.456Z,76.30
2022-12-03T22:30:18.641Z,76.20
2022-12-03T22:32:48.238Z,75.80
2022-12-03T22:35:17.770Z,76.10
2022-12-03T22:37:47.194Z,76.50
2022-12-03T22:40:16.846Z,76.30
2022-12-03T22:42:50.743Z,76.30
2022-12-03T22:45:20.840Z,76.50
2022-12-03T22:47:50.462Z,76.40
2022-12-03T22:50:20.841Z,76.20
2022-12-03T22:52:51.001Z,76.50
2022-12-03T22:55:20.734Z,77.10
2022-12-03T22:57:50.671Z,76.30
2022-12-03T23:00:30.013Z,76.50
2022-12-03T23:03:00.474Z,76.40
2022-12-03T23:05:39.751Z,76.50
2022-12-03T23:08:13.696Z,76.00
2022-12-03T23:10:45.405Z,75.80
2022-12-03T23:13:15.327Z,76.20
2022-12-03T23:15:49.030Z,76.00
2022-12-03T23:18:19.769Z,76.10
2022-12-03T23:20:51.122Z,76.40
2022-12-03T23:23:21.775Z,76.00
2022-12-03T23:26:02.063Z,75.60
2022-12-03T23:28:32.761Z,76.00
2022-12-03T23:31:02.329Z,76.00
2022-12-03T23:33:37.883Z,76.00
2022-12-03T23:36:08.646Z,76.00
2022-12-03T23:38:38.240Z,75.40
2022-12-03T23:41:12.615Z,75.40
2022-12-03T23:43:42.420Z,75.10
2022-12-03T23:46:16.304Z,75.30
2022-12-03T23:48:46.719Z,75.10
2022-12-03T23:51:18.090Z,75.10
2022-12-03T23:53:47.686Z,75.20
2022-12-03T23:56:19.369Z,74.90
2022-12-03T23:58:48.882Z,74.80
